sensor_id;sensor_type;location;lat;lon;timestamp;temperature;humidity
21259;DHT22;10787;53.364;-1.480;2023-03-08T00:01:01;-0.40;99.90
21259;DHT22;10787;53.364;-1.480;2023-03-08T00:03:26;-0.40;99.90
21259;DHT22;10787;53.364;-1.480;2023-03-08T00:05:52;-0.40;99.90
21259;DHT22;10787;53.364;-1.480;2023-03-08T00:08:18;-0.40;99.90
21259;DHT22;10787;53.364;-1.480;2023-03-08T00:10:44;-0.40;99.90
21259;DHT22;10787;53.364;-1.480;2023-03-08T00:13:10;-0.40;99.90
21259;DHT22;10787;53.364;-1.480;2023-03-08T00:15:37;-0.40;99.90
21259;DHT22;10787;53.364;-1.480;2023-03-08T00:18:04;-0.40;99.90
21259;DHT22;10787;53.364;-1.480;2023-03-08T00:20:31;-0.40;99.90
21259;DHT22;10787;53.364;-1.480;2023-03-08T00:22:56;-0.40;99.90
21259;DHT22;10787;53.364;-1.480;2023-03-08T00:25:22;-0.40;99.90
21259;DHT22;10787;53.364;-1.480;2023-03-08T00:27:48;-0.40;99.90
21259;DHT22;10787;53.364;-1.480;2023-03-08T00:30:16;-0.40;99.90
21259;DHT22;10787;53.364;-1.480;2023-03-08T00:32:42;-0.40;99.90
21259;DHT22;10787;53.364;-1.480;2023-03-08T00:35:08;-0.40;99.90
21259;DHT22;10787;53.364;-1.480;2023-03-08T00:37:34;-0.30;99.90
21259;DHT22;10787;53.364;-1.480;2023-03-08T00:40:00;-0.40;99.90
21259;DHT22;10787;53.364;-1.480;2023-03-08T00:42:26;-0.40;99.90
21259;DHT22;10787;53.364;-1.480;2023-03-08T00:44:51;-0.40;99.90
21259;DHT22;10787;53.364;-1.480;2023-03-08T00:47:17;-0.40;99.90
21259;DHT22;10787;53.364;-1.480;2023-03-08T00:49:43;-0.50;99.90
21259;DHT22;10787;53.364;-1.480;2023-03-08T00:52:09;-0.50;99.90
21259;DHT22;10787;53.364;-1.480;2023-03-08T00:54:36;-0.60;99.90
21259;DHT22;10787;53.364;-1.480;2023-03-08T00:57:01;-0.70;99.90
21259;DHT22;10787;53.364;-1.480;2023-03-08T00:59:27;-0.70;99.90
21259;DHT22;10787;53.364;-1.480;2023-03-08T01:01:53;-0.70;99.90
21259;DHT22;10787;53.364;-1.480;2023-03-08T01:04:19;-0.70;99.90
21259;DHT22;10787;53.364;-1.480;2023-03-08T01:06:45;-0.70;99.90
21259;DHT22;10787;53.364;-1.480;2023-03-08T01:09:11;-0.70;99.90
21259;DHT22;10787;53.364;-1.480;2023-03-08T01:11:37;-0.70;99.90
21259;DHT22;10787;53.364;-1.480;2023-03-08T01:14:04;-0.70;99.90
21259;DHT22;10787;53.364;-1.480;2023-03-08T01:16:31;-0.60;99.90
21259;DHT22;10787;53.364;-1.480;2023-03-08T01:19:00;-0.60;99.90
21259;DHT22;10787;53.364;-1.480;2023-03-08T01:21:30;-0.60;99.90
21259;DHT22;10787;53.364;-1.480;2023-03-08T01:23:56;-0.50;99.90
21259;DHT22;10787;53.364;-1.480;2023-03-08T01:26:26;-0.50;99.90
21259;DHT22;10787;53.364;-1.480;2023-03-08T01:28:58;-0.60;99.90
21259;DHT22;10787;53.364;-1.480;2023-03-08T01:31:26;-0.60;99.90
21259;DHT22;10787;53.364;-1.480;2023-03-08T01:33:52;-0.60;99.90
21259;DHT22;10787;53.364;-1.480;2023-03-08T01:36:20;-0.50;99.90
21259;DHT22;10787;53.364;-1.480;2023-03-08T01:38:47;-0.50;99.90
21259;DHT22;10787;53.364;-1.480;2023-03-08T01:41:15;-0.50;99.90
21259;DHT22;10787;53.364;-1.480;2023-03-08T01:43:44;-0.50;99.90
21259;DHT22;10787;53.364;-1.480;2023-03-08T01:51:51;-0.50;99.90
21259;DHT22;10787;53.364;-1.480;2023-03-08T01:56:56;-0.50;99.90
21259;DHT22;10787;53.364;-1.480;2023-03-08T01:59:23;-0.50;99.90
21259;DHT22;10787;53.364;-1.480;2023-03-08T02:01:49;-0.50;99.90
21259;DHT22;10787;53.364;-1.480;2023-03-08T02:04:15;-0.50;99.90
21259;DHT22;10787;53.364;-1.480;2023-03-08T02:06:42;-0.50;99.90
21259;DHT22;10787;53.364;-1.480;2023-03-08T02:09:08;-0.50;99.90
21259;DHT22;10787;53.364;-1.480;2023-03-08T02:11:36;-0.40;99.90
21259;DHT22;10787;53.364;-1.480;2023-03-08T02:14:03;-0.50;99.90
21259;DHT22;10787;53.364;-1.480;2023-03-08T02:16:30;-0.50;99.90
21259;DHT22;10787;53.364;-1.480;2023-03-08T02:19:01;-0.40;99.90
21259;DHT22;10787;53.364;-1.480;2023-03-08T02:21:28;-0.40;99.90
21259;DHT22;10787;53.364;-1.480;2023-03-08T02:23:55;-0.40;99.90
21259;DHT22;10787;53.364;-1.480;2023-03-08T02:26:21;-0.40;99.90
21259;DHT22;10787;53.364;-1.480;2023-03-08T02:28:47;-0.30;99.90
21259;DHT22;10787;53.364;-1.480;2023-03-08T02:31:14;-0.30;99.90
21259;DHT22;10787;53.364;-1.480;2023-03-08T02:33:40;-0.30;99.90
21259;DHT22;10787;53.364;-1.480;2023-03-08T02:36:07;-0.30;99.90
21259;DHT22;10787;53.364;-1.480;2023-03-08T02:38:34;-0.30;99.90
21259;DHT22;10787;53.364;-1.480;2023-03-08T02:41:00;-0.30;99.90
21259;DHT22;10787;53.364;-1.480;2023-03-08T02:43:26;-0.30;99.90
21259;DHT22;10787;53.364;-1.480;2023-03-08T02:45:51;-0.30;99.90
21259;DHT22;10787;53.364;-1.480;2023-03-08T02:48:17;-0.30;99.90
21259;DHT22;10787;53.364;-1.480;2023-03-08T02:50:43;-0.30;99.90
21259;DHT22;10787;53.364;-1.480;2023-03-08T02:53:09;-0.30;99.90
21259;DHT22;10787;53.364;-1.480;2023-03-08T02:55:35;-0.30;99.90
21259;DHT22;10787;53.364;-1.480;2023-03-08T02:58:06;-0.30;99.90
21259;DHT22;10787;53.364;-1.480;2023-03-08T03:00:32;-0.30;99.90
21259;DHT22;10787;53.364;-1.480;2023-03-08T03:02:58;-0.40;99.90
21259;DHT22;10787;53.364;-1.480;2023-03-08T03:05:24;-0.40;99.90
21259;DHT22;10787;53.364;-1.480;2023-03-08T03:07:50;-0.40;99.90
21259;DHT22;10787;53.364;-1.480;2023-03-08T03:10:15;-0.40;99.90
21259;DHT22;10787;53.364;-1.480;2023-03-08T03:12:41;-0.40;99.90
21259;DHT22;10787;53.364;-1.480;2023-03-08T03:15:09;-0.30;99.90
21259;DHT22;10787;53.364;-1.480;2023-03-08T03:17:36;-0.30;99.90
21259;DHT22;10787;53.364;-1.480;2023-03-08T03:20:03;-0.30;99.90
21259;DHT22;10787;53.364;-1.480;2023-03-08T03:22:31;-0.20;99.90
21259;DHT22;10787;53.364;-1.480;2023-03-08T03:24:57;-0.20;99.90
21259;DHT22;10787;53.364;-1.480;2023-03-08T03:27:23;-0.20;99.90
21259;DHT22;10787;53.364;-1.480;2023-03-08T03:29:48;-0.20;99.90
21259;DHT22;10787;53.364;-1.480;2023-03-08T03:32:14;-0.20;99.90
21259;DHT22;10787;53.364;-1.480;2023-03-08T03:34:40;-0.20;99.90
21259;DHT22;10787;53.364;-1.480;2023-03-08T03:37:06;-0.20;99.90
21259;DHT22;10787;53.364;-1.480;2023-03-08T03:39:38;-0.20;99.90
21259;DHT22;10787;53.364;-1.480;2023-03-08T03:42:05;-0.30;99.90
21259;DHT22;10787;53.364;-1.480;2023-03-08T03:44:31;-0.30;99.90
21259;DHT22;10787;53.364;-1.480;2023-03-08T03:46:57;-0.30;99.90
21259;DHT22;10787;53.364;-1.480;2023-03-08T03:49:23;-0.30;99.90
21259;DHT22;10787;53.364;-1.480;2023-03-08T03:51:49;-0.30;99.90
21259;DHT22;10787;53.364;-1.480;2023-03-08T03:54:14;-0.30;99.90
21259;DHT22;10787;53.364;-1.480;2023-03-08T03:56:40;-0.30;99.90
21259;DHT22;10787;53.364;-1.480;2023-03-08T03:59:06;-0.30;99.90
21259;DHT22;10787;53.364;-1.480;2023-03-08T04:01:32;-0.30;99.90
21259;DHT22;10787;53.364;-1.480;2023-03-08T04:03:58;-0.30;99.90
21259;DHT22;10787;53.364;-1.480;2023-03-08T04:06:26;-0.30;99.90
21259;DHT22;10787;53.364;-1.480;2023-03-08T04:08:58;-0.30;99.90
21259;DHT22;10787;53.364;-1.480;2023-03-08T04:11:27;-0.30;99.90
21259;DHT22;10787;53.364;-1.480;2023-03-08T04:13:53;-0.30;99.90
21259;DHT22;10787;53.364;-1.480;2023-03-08T04:16:20;-0.30;99.90
21259;DHT22;10787;53.364;-1.480;2023-03-08T04:18:47;-0.30;99.90
21259;DHT22;10787;53.364;-1.480;2023-03-08T04:21:13;-0.30;99.90
21259;DHT22;10787;53.364;-1.480;2023-03-08T04:23:39;-0.30;99.90
21259;DHT22;10787;53.364;-1.480;2023-03-08T04:26:06;-0.30;99.90
21259;DHT22;10787;53.364;-1.480;2023-03-08T04:28:32;-0.30;99.90
21259;DHT22;10787;53.364;-1.480;2023-03-08T04:30:59;-0.20;99.90
21259;DHT22;10787;53.364;-1.480;2023-03-08T04:33:25;-0.20;99.90
21259;DHT22;10787;53.364;-1.480;2023-03-08T04:35:51;-0.20;99.90
21259;DHT22;10787;53.364;-1.480;2023-03-08T04:38:17;-0.10;99.90
21259;DHT22;10787;53.364;-1.480;2023-03-08T04:40:49;-0.10;99.90
21259;DHT22;10787;53.364;-1.480;2023-03-08T04:43:31;-0.20;99.90
21259;DHT22;10787;53.364;-1.480;2023-03-08T04:46:00;-0.10;99.90
21259;DHT22;10787;53.364;-1.480;2023-03-08T04:48:27;-0.10;99.90
21259;DHT22;10787;53.364;-1.480;2023-03-08T04:50:54;-0.10;99.90
21259;DHT22;10787;53.364;-1.480;2023-03-08T04:53:21;-0.10;99.90
21259;DHT22;10787;53.364;-1.480;2023-03-08T04:55:46;-0.10;99.90
21259;DHT22;10787;53.364;-1.480;2023-03-08T04:58:12;-0.10;99.90
21259;DHT22;10787;53.364;-1.480;2023-03-08T05:00:38;-0.10;99.90
21259;DHT22;10787;53.364;-1.480;2023-03-08T05:03:04;0.00;99.90
21259;DHT22;10787;53.364;-1.480;2023-03-08T05:05:31;0.00;99.90
21259;DHT22;10787;53.364;-1.480;2023-03-08T05:07:57;-0.10;99.90
21259;DHT22;10787;53.364;-1.480;2023-03-08T05:10:24;-0.10;99.90
21259;DHT22;10787;53.364;-1.480;2023-03-08T05:12:50;-0.10;99.90
21259;DHT22;10787;53.364;-1.480;2023-03-08T05:15:16;-0.10;99.90
21259;DHT22;10787;53.364;-1.480;2023-03-08T05:17:42;-0.10;99.90
21259;DHT22;10787;53.364;-1.480;2023-03-08T05:20:08;0.00;99.90
21259;DHT22;10787;53.364;-1.480;2023-03-08T05:22:34;0.00;99.90
21259;DHT22;10787;53.364;-1.480;2023-03-08T05:24:59;0.00;99.90
21259;DHT22;10787;53.364;-1.480;2023-03-08T05:27:25;0.00;99.90
21259;DHT22;10787;53.364;-1.480;2023-03-08T05:29:51;0.00;99.90
21259;DHT22;10787;53.364;-1.480;2023-03-08T05:32:17;0.00;99.90
21259;DHT22;10787;53.364;-1.480;2023-03-08T05:34:43;0.10;99.90
21259;DHT22;10787;53.364;-1.480;2023-03-08T05:37:09;0.10;99.90
21259;DHT22;10787;53.364;-1.480;2023-03-08T05:39:34;0.20;99.90
21259;DHT22;10787;53.364;-1.480;2023-03-08T05:42:00;0.20;99.90
21259;DHT22;10787;53.364;-1.480;2023-03-08T05:44:26;0.20;99.90
21259;DHT22;10787;53.364;-1.480;2023-03-08T05:46:52;0.20;99.90
21259;DHT22;10787;53.364;-1.480;2023-03-08T05:49:18;0.20;99.90
21259;DHT22;10787;53.364;-1.480;2023-03-08T05:51:43;0.20;99.90
21259;DHT22;10787;53.364;-1.480;2023-03-08T05:54:09;0.20;99.90
21259;DHT22;10787;53.364;-1.480;2023-03-08T05:56:35;0.10;99.90
21259;DHT22;10787;53.364;-1.480;2023-03-08T05:59:01;0.10;99.90
21259;DHT22;10787;53.364;-1.480;2023-03-08T06:01:27;0.10;99.90
21259;DHT22;10787;53.364;-1.480;2023-03-08T06:03:55;0.10;99.90
21259;DHT22;10787;53.364;-1.480;2023-03-08T06:06:23;0.10;99.90
21259;DHT22;10787;53.364;-1.480;2023-03-08T06:08:49;0.00;99.90
21259;DHT22;10787;53.364;-1.480;2023-03-08T06:11:17;0.00;99.90
21259;DHT22;10787;53.364;-1.480;2023-03-08T06:13:43;0.00;99.90
21259;DHT22;10787;53.364;-1.480;2023-03-08T06:16:09;0.00;99.90
21259;DHT22;10787;53.364;-1.480;2023-03-08T06:18:37;0.00;99.90
21259;DHT22;10787;53.364;-1.480;2023-03-08T06:21:09;0.00;99.90
21259;DHT22;10787;53.364;-1.480;2023-03-08T06:23:35;0.00;99.90
21259;DHT22;10787;53.364;-1.480;2023-03-08T06:26:02;0.00;99.90
21259;DHT22;10787;53.364;-1.480;2023-03-08T06:28:29;0.00;99.90
21259;DHT22;10787;53.364;-1.480;2023-03-08T06:30:55;0.00;99.90
21259;DHT22;10787;53.364;-1.480;2023-03-08T06:33:24;0.00;99.90
21259;DHT22;10787;53.364;-1.480;2023-03-08T06:38:28;0.00;99.90
21259;DHT22;10787;53.364;-1.480;2023-03-08T06:40:54;0.00;99.90
21259;DHT22;10787;53.364;-1.480;2023-03-08T06:43:20;0.00;99.90
21259;DHT22;10787;53.364;-1.480;2023-03-08T06:45:46;0.00;99.90
21259;DHT22;10787;53.364;-1.480;2023-03-08T06:48:12;0.00;99.90
21259;DHT22;10787;53.364;-1.480;2023-03-08T06:50:38;0.10;99.90
21259;DHT22;10787;53.364;-1.480;2023-03-08T06:53:04;0.20;99.90
21259;DHT22;10787;53.364;-1.480;2023-03-08T06:55:30;0.30;99.90
21259;DHT22;10787;53.364;-1.480;2023-03-08T06:57:56;0.50;99.90
21259;DHT22;10787;53.364;-1.480;2023-03-08T07:00:22;0.80;99.90
21259;DHT22;10787;53.364;-1.480;2023-03-08T07:02:48;1.00;99.90
21259;DHT22;10787;53.364;-1.480;2023-03-08T07:05:17;0.90;99.90
21259;DHT22;10787;53.364;-1.480;2023-03-08T07:07:43;0.90;99.90
21259;DHT22;10787;53.364;-1.480;2023-03-08T07:10:10;0.90;99.90
21259;DHT22;10787;53.364;-1.480;2023-03-08T07:12:36;0.80;99.90
21259;DHT22;10787;53.364;-1.480;2023-03-08T07:15:10;0.80;99.90
21259;DHT22;10787;53.364;-1.480;2023-03-08T07:17:42;0.70;99.90
21259;DHT22;10787;53.364;-1.480;2023-03-08T07:20:09;0.70;99.90
21259;DHT22;10787;53.364;-1.480;2023-03-08T07:22:35;0.70;99.90
21259;DHT22;10787;53.364;-1.480;2023-03-08T07:25:01;0.70;99.90
21259;DHT22;10787;53.364;-1.480;2023-03-08T07:27:27;0.70;99.90
21259;DHT22;10787;53.364;-1.480;2023-03-08T07:29:53;0.60;99.90
21259;DHT22;10787;53.364;-1.480;2023-03-08T07:32:18;0.60;99.90
21259;DHT22;10787;53.364;-1.480;2023-03-08T07:34:44;0.60;99.90
21259;DHT22;10787;53.364;-1.480;2023-03-08T07:37:14;0.60;99.90
21259;DHT22;10787;53.364;-1.480;2023-03-08T07:39:41;0.60;99.90
21259;DHT22;10787;53.364;-1.480;2023-03-08T07:42:08;0.60;99.90
21259;DHT22;10787;53.364;-1.480;2023-03-08T07:44:34;0.60;99.90
21259;DHT22;10787;53.364;-1.480;2023-03-08T07:47:02;0.70;99.90
21259;DHT22;10787;53.364;-1.480;2023-03-08T07:49:27;0.70;99.90
21259;DHT22;10787;53.364;-1.480;2023-03-08T07:51:53;0.70;99.90
21259;DHT22;10787;53.364;-1.480;2023-03-08T07:54:20;0.70;99.90
21259;DHT22;10787;53.364;-1.480;2023-03-08T07:56:46;0.60;99.90
21259;DHT22;10787;53.364;-1.480;2023-03-08T07:59:12;0.70;99.90
21259;DHT22;10787;53.364;-1.480;2023-03-08T08:01:38;0.80;99.90
21259;DHT22;10787;53.364;-1.480;2023-03-08T08:04:03;0.80;99.90
21259;DHT22;10787;53.364;-1.480;2023-03-08T08:06:29;0.80;99.90
21259;DHT22;10787;53.364;-1.480;2023-03-08T08:08:55;0.90;99.90
21259;DHT22;10787;53.364;-1.480;2023-03-08T08:11:22;1.00;99.90
21259;DHT22;10787;53.364;-1.480;2023-03-08T08:13:48;1.10;99.90
21259;DHT22;10787;53.364;-1.480;2023-03-08T08:16:15;1.10;99.90
21259;DHT22;10787;53.364;-1.480;2023-03-08T08:18:41;1.10;99.90
21259;DHT22;10787;53.364;-1.480;2023-03-08T08:21:09;1.00;99.90
21259;DHT22;10787;53.364;-1.480;2023-03-08T08:23:36;1.10;99.90
21259;DHT22;10787;53.364;-1.480;2023-03-08T08:26:07;1.10;99.90
21259;DHT22;10787;53.364;-1.480;2023-03-08T08:28:34;1.10;99.90
21259;DHT22;10787;53.364;-1.480;2023-03-08T08:31:09;1.20;99.90
21259;DHT22;10787;53.364;-1.480;2023-03-08T08:33:35;1.20;99.90
21259;DHT22;10787;53.364;-1.480;2023-03-08T08:36:04;1.30;99.90
21259;DHT22;10787;53.364;-1.480;2023-03-08T08:38:30;1.30;99.90
21259;DHT22;10787;53.364;-1.480;2023-03-08T08:41:00;1.40;99.90
21259;DHT22;10787;53.364;-1.480;2023-03-08T08:43:26;1.40;99.90
21259;DHT22;10787;53.364;-1.480;2023-03-08T08:45:54;1.50;99.90
21259;DHT22;10787;53.364;-1.480;2023-03-08T08:48:21;1.60;99.90
21259;DHT22;10787;53.364;-1.480;2023-03-08T08:50:46;1.60;99.90
21259;DHT22;10787;53.364;-1.480;2023-03-08T08:53:12;1.60;99.90
21259;DHT22;10787;53.364;-1.480;2023-03-08T08:55:38;1.70;99.90
21259;DHT22;10787;53.364;-1.480;2023-03-08T08:58:04;1.80;99.90
21259;DHT22;10787;53.364;-1.480;2023-03-08T09:00:32;1.90;99.90
21259;DHT22;10787;53.364;-1.480;2023-03-08T09:02:59;1.90;99.90
21259;DHT22;10787;53.364;-1.480;2023-03-08T09:05:25;2.00;99.90
21259;DHT22;10787;53.364;-1.480;2023-03-08T09:07:54;2.10;99.90
21259;DHT22;10787;53.364;-1.480;2023-03-08T09:10:23;2.30;99.90
21259;DHT22;10787;53.364;-1.480;2023-03-08T09:12:50;2.40;99.90
21259;DHT22;10787;53.364;-1.480;2023-03-08T09:15:16;2.50;99.90
21259;DHT22;10787;53.364;-1.480;2023-03-08T09:17:41;2.50;99.90
21259;DHT22;10787;53.364;-1.480;2023-03-08T09:20:08;2.50;99.90
21259;DHT22;10787;53.364;-1.480;2023-03-08T09:22:35;2.60;99.90
21259;DHT22;10787;53.364;-1.480;2023-03-08T09:25:01;2.70;99.90
21259;DHT22;10787;53.364;-1.480;2023-03-08T09:27:26;2.80;99.90
21259;DHT22;10787;53.364;-1.480;2023-03-08T09:29:52;2.80;99.90
21259;DHT22;10787;53.364;-1.480;2023-03-08T09:32:18;2.90;99.90
21259;DHT22;10787;53.364;-1.480;2023-03-08T09:34:44;3.00;99.90
21259;DHT22;10787;53.364;-1.480;2023-03-08T09:37:12;3.00;99.90
21259;DHT22;10787;53.364;-1.480;2023-03-08T09:39:38;3.10;99.90
21259;DHT22;10787;53.364;-1.480;2023-03-08T09:42:06;3.20;99.90
21259;DHT22;10787;53.364;-1.480;2023-03-08T09:45:04;3.30;99.90
21259;DHT22;10787;53.364;-1.480;2023-03-08T09:48:29;3.40;99.90
21259;DHT22;10787;53.364;-1.480;2023-03-08T09:50:53;3.60;99.90
21259;DHT22;10787;53.364;-1.480;2023-03-08T09:53:31;3.70;99.90
21259;DHT22;10787;53.364;-1.480;2023-03-08T09:56:10;3.80;99.90
21259;DHT22;10787;53.364;-1.480;2023-03-08T09:58:54;3.90;99.90
21259;DHT22;10787;53.364;-1.480;2023-03-08T10:09:37;3.90;99.90
21259;DHT22;10787;53.364;-1.480;2023-03-08T10:15:08;4.30;99.90
21259;DHT22;10787;53.364;-1.480;2023-03-08T10:17:50;4.50;99.90
21259;DHT22;10787;53.364;-1.480;2023-03-08T10:20:33;4.70;99.90
21259;DHT22;10787;53.364;-1.480;2023-03-08T10:23:08;4.80;99.90
21259;DHT22;10787;53.364;-1.480;2023-03-08T10:25:35;4.80;99.90
21259;DHT22;10787;53.364;-1.480;2023-03-08T10:28:04;4.80;99.90
21259;DHT22;10787;53.364;-1.480;2023-03-08T10:30:39;4.90;99.90
21259;DHT22;10787;53.364;-1.480;2023-03-08T10:33:09;5.00;99.90
21259;DHT22;10787;53.364;-1.480;2023-03-08T10:35:38;5.00;99.90
21259;DHT22;10787;53.364;-1.480;2023-03-08T10:38:15;5.00;99.90
21259;DHT22;10787;53.364;-1.480;2023-03-08T10:40:41;5.00;99.90
21259;DHT22;10787;53.364;-1.480;2023-03-08T10:43:19;5.00;99.90
21259;DHT22;10787;53.364;-1.480;2023-03-08T10:46:04;5.20;99.90
21259;DHT22;10787;53.364;-1.480;2023-03-08T10:48:31;5.40;99.90
21259;DHT22;10787;53.364;-1.480;2023-03-08T10:51:03;5.70;99.90
21259;DHT22;10787;53.364;-1.480;2023-03-08T10:53:30;5.60;99.90
21259;DHT22;10787;53.364;-1.480;2023-03-08T10:55:57;5.80;99.90
21259;DHT22;10787;53.364;-1.480;2023-03-08T10:58:36;5.90;99.90
21259;DHT22;10787;53.364;-1.480;2023-03-08T11:01:27;6.10;99.90
21259;DHT22;10787;53.364;-1.480;2023-03-08T11:04:15;6.10;99.90
21259;DHT22;10787;53.364;-1.480;2023-03-08T11:06:42;6.20;99.90
21259;DHT22;10787;53.364;-1.480;2023-03-08T11:09:37;6.10;99.90
21259;DHT22;10787;53.364;-1.480;2023-03-08T11:12:03;6.20;99.90
21259;DHT22;10787;53.364;-1.480;2023-03-08T11:14:29;6.00;99.90
21259;DHT22;10787;53.364;-1.480;2023-03-08T11:27:47;6.20;99.90
21259;DHT22;10787;53.364;-1.480;2023-03-08T11:33:24;6.40;99.90
21259;DHT22;10787;53.364;-1.480;2023-03-08T11:36:54;6.50;99.90
21259;DHT22;10787;53.364;-1.480;2023-03-08T11:38:58;6.40;99.90
21259;DHT22;10787;53.364;-1.480;2023-03-08T11:58:25;5.40;99.90
21259;DHT22;10787;53.364;-1.480;2023-03-08T12:00:59;5.50;99.90
21259;DHT22;10787;53.364;-1.480;2023-03-08T12:03:33;5.50;99.90
21259;DHT22;10787;53.364;-1.480;2023-03-08T12:11:43;5.60;99.90
21259;DHT22;10787;53.364;-1.480;2023-03-08T12:14:13;5.60;99.90
21259;DHT22;10787;53.364;-1.480;2023-03-08T12:17:00;5.50;99.90
21259;DHT22;10787;53.364;-1.480;2023-03-08T12:19:48;5.40;99.90
21259;DHT22;10787;53.364;-1.480;2023-03-08T12:25:26;5.30;99.90
21259;DHT22;10787;53.364;-1.480;2023-03-08T12:28:21;5.20;99.90
21259;DHT22;10787;53.364;-1.480;2023-03-08T12:33:36;5.20;99.90
21259;DHT22;10787;53.364;-1.480;2023-03-08T12:36:05;5.20;99.90
21259;DHT22;10787;53.364;-1.480;2023-03-08T12:38:35;5.30;99.90
21259;DHT22;10787;53.364;-1.480;2023-03-08T12:41:03;5.40;99.90
21259;DHT22;10787;53.364;-1.480;2023-03-08T12:43:33;5.50;99.90
21259;DHT22;10787;53.364;-1.480;2023-03-08T13:03:53;5.40;99.90
21259;DHT22;10787;53.364;-1.480;2023-03-08T13:09:46;5.20;99.90
21259;DHT22;10787;53.364;-1.480;2023-03-08T13:14:45;4.70;99.90
21259;DHT22;10787;53.364;-1.480;2023-03-08T13:17:33;4.40;99.90
21259;DHT22;10787;53.364;-1.480;2023-03-08T13:20:33;4.00;99.90
21259;DHT22;10787;53.364;-1.480;2023-03-08T13:23:21;3.50;99.90
21259;DHT22;10787;53.364;-1.480;2023-03-08T13:28:38;2.90;99.90
21259;DHT22;10787;53.364;-1.480;2023-03-08T13:31:19;2.90;99.90
21259;DHT22;10787;53.364;-1.480;2023-03-08T13:33:49;2.80;99.90
21259;DHT22;10787;53.364;-1.480;2023-03-08T13:36:24;2.90;99.90
21259;DHT22;10787;53.364;-1.480;2023-03-08T13:44:05;3.00;99.90
21259;DHT22;10787;53.364;-1.480;2023-03-08T13:46:31;3.00;99.90
21259;DHT22;10787;53.364;-1.480;2023-03-08T13:49:00;3.10;99.90
21259;DHT22;10787;53.364;-1.480;2023-03-08T13:51:27;3.10;99.90
21259;DHT22;10787;53.364;-1.480;2023-03-08T13:53:54;3.20;99.90
21259;DHT22;10787;53.364;-1.480;2023-03-08T13:56:24;3.10;99.90
21259;DHT22;10787;53.364;-1.480;2023-03-08T13:58:51;3.30;99.90
21259;DHT22;10787;53.364;-1.480;2023-03-08T14:01:20;3.30;99.90
21259;DHT22;10787;53.364;-1.480;2023-03-08T14:03:51;3.40;99.90
21259;DHT22;10787;53.364;-1.480;2023-03-08T14:06:20;3.40;99.90
21259;DHT22;10787;53.364;-1.480;2023-03-08T14:08:47;3.50;99.90
21259;DHT22;10787;53.364;-1.480;2023-03-08T14:11:17;3.70;99.90
21259;DHT22;10787;53.364;-1.480;2023-03-08T14:13:46;3.80;99.90
21259;DHT22;10787;53.364;-1.480;2023-03-08T14:16:34;3.90;99.90
21259;DHT22;10787;53.364;-1.480;2023-03-08T14:22:29;4.00;99.90
21259;DHT22;10787;53.364;-1.480;2023-03-08T14:24:36;4.00;99.90
21259;DHT22;10787;53.364;-1.480;2023-03-08T14:27:05;3.90;99.90
21259;DHT22;10787;53.364;-1.480;2023-03-08T14:29:34;4.00;99.90
21259;DHT22;10787;53.364;-1.480;2023-03-08T14:39:39;4.30;99.90
21259;DHT22;10787;53.364;-1.480;2023-03-08T14:45:22;4.10;99.90
21259;DHT22;10787;53.364;-1.480;2023-03-08T14:47:51;4.00;99.90
21259;DHT22;10787;53.364;-1.480;2023-03-08T14:50:26;3.80;99.90
21259;DHT22;10787;53.364;-1.480;2023-03-08T14:52:54;3.70;99.90
21259;DHT22;10787;53.364;-1.480;2023-03-08T14:57:57;3.50;99.90
21259;DHT22;10787;53.364;-1.480;2023-03-08T15:00:23;3.50;99.90
21259;DHT22;10787;53.364;-1.480;2023-03-08T15:02:52;3.40;99.90
21259;DHT22;10787;53.364;-1.480;2023-03-08T15:05:20;3.40;99.90
21259;DHT22;10787;53.364;-1.480;2023-03-08T15:07:47;3.40;99.90
21259;DHT22;10787;53.364;-1.480;2023-03-08T15:10:28;3.30;99.90
21259;DHT22;10787;53.364;-1.480;2023-03-08T15:12:55;3.30;99.90
21259;DHT22;10787;53.364;-1.480;2023-03-08T15:15:21;3.20;99.90
21259;DHT22;10787;53.364;-1.480;2023-03-08T15:17:47;3.20;99.90
21259;DHT22;10787;53.364;-1.480;2023-03-08T15:20:14;3.10;99.90
21259;DHT22;10787;53.364;-1.480;2023-03-08T15:22:44;3.00;99.90
21259;DHT22;10787;53.364;-1.480;2023-03-08T15:27:43;2.90;99.90
21259;DHT22;10787;53.364;-1.480;2023-03-08T15:30:15;2.80;99.90
21259;DHT22;10787;53.364;-1.480;2023-03-08T15:32:41;2.80;99.90
21259;DHT22;10787;53.364;-1.480;2023-03-08T15:35:08;2.80;99.90
21259;DHT22;10787;53.364;-1.480;2023-03-08T15:37:34;2.90;99.90
21259;DHT22;10787;53.364;-1.480;2023-03-08T15:39:59;3.00;99.90
21259;DHT22;10787;53.364;-1.480;2023-03-08T15:42:25;3.20;99.90
21259;DHT22;10787;53.364;-1.480;2023-03-08T15:44:51;3.30;99.90
21259;DHT22;10787;53.364;-1.480;2023-03-08T15:47:17;3.50;99.90
21259;DHT22;10787;53.364;-1.480;2023-03-08T15:49:42;3.60;99.90
21259;DHT22;10787;53.364;-1.480;2023-03-08T15:52:11;3.80;99.90
21259;DHT22;10787;53.364;-1.480;2023-03-08T15:54:37;4.00;99.90
21259;DHT22;10787;53.364;-1.480;2023-03-08T15:57:04;4.00;99.90
21259;DHT22;10787;53.364;-1.480;2023-03-08T15:59:30;4.20;99.90
21259;DHT22;10787;53.364;-1.480;2023-03-08T16:01:56;4.10;99.90
21259;DHT22;10787;53.364;-1.480;2023-03-08T16:04:22;4.00;99.90
21259;DHT22;10787;53.364;-1.480;2023-03-08T16:06:47;4.00;99.90
21259;DHT22;10787;53.364;-1.480;2023-03-08T16:09:13;3.90;99.90
21259;DHT22;10787;53.364;-1.480;2023-03-08T16:11:39;3.80;99.90
21259;DHT22;10787;53.364;-1.480;2023-03-08T16:14:04;3.80;99.90
21259;DHT22;10787;53.364;-1.480;2023-03-08T16:16:30;3.70;99.90
21259;DHT22;10787;53.364;-1.480;2023-03-08T16:18:57;3.60;99.90
21259;DHT22;10787;53.364;-1.480;2023-03-08T16:21:22;3.60;99.90
21259;DHT22;10787;53.364;-1.480;2023-03-08T16:24:03;3.60;99.90
21259;DHT22;10787;53.364;-1.480;2023-03-08T16:26:29;3.60;99.90
21259;DHT22;10787;53.364;-1.480;2023-03-08T16:28:58;3.60;99.90
21259;DHT22;10787;53.364;-1.480;2023-03-08T16:31:24;3.60;99.90
21259;DHT22;10787;53.364;-1.480;2023-03-08T16:33:49;3.50;99.90
21259;DHT22;10787;53.364;-1.480;2023-03-08T16:36:20;3.60;99.90
21259;DHT22;10787;53.364;-1.480;2023-03-08T16:38:51;3.60;99.90
21259;DHT22;10787;53.364;-1.480;2023-03-08T16:41:20;3.60;99.90
21259;DHT22;10787;53.364;-1.480;2023-03-08T16:43:48;3.60;99.90
21259;DHT22;10787;53.364;-1.480;2023-03-08T16:46:19;3.60;99.90
21259;DHT22;10787;53.364;-1.480;2023-03-08T16:48:46;3.50;99.90
21259;DHT22;10787;53.364;-1.480;2023-03-08T16:51:18;3.40;99.90
21259;DHT22;10787;53.364;-1.480;2023-03-08T16:53:44;3.30;99.90
21259;DHT22;10787;53.364;-1.480;2023-03-08T16:56:27;3.10;99.90
21259;DHT22;10787;53.364;-1.480;2023-03-08T16:58:58;2.90;99.90
21259;DHT22;10787;53.364;-1.480;2023-03-08T17:01:27;2.90;99.90
21259;DHT22;10787;53.364;-1.480;2023-03-08T17:03:54;2.80;99.90
21259;DHT22;10787;53.364;-1.480;2023-03-08T17:06:31;2.70;99.90
21259;DHT22;10787;53.364;-1.480;2023-03-08T17:09:01;2.70;99.90
21259;DHT22;10787;53.364;-1.480;2023-03-08T17:11:29;2.70;99.90
21259;DHT22;10787;53.364;-1.480;2023-03-08T17:14:04;2.60;99.90
21259;DHT22;10787;53.364;-1.480;2023-03-08T17:16:35;2.50;99.90
21259;DHT22;10787;53.364;-1.480;2023-03-08T17:19:05;2.50;99.90
21259;DHT22;10787;53.364;-1.480;2023-03-08T17:21:36;2.50;99.90
21259;DHT22;10787;53.364;-1.480;2023-03-08T17:24:05;2.40;99.90
21259;DHT22;10787;53.364;-1.480;2023-03-08T17:26:35;2.30;99.90
21259;DHT22;10787;53.364;-1.480;2023-03-08T17:29:04;2.30;99.90